MiSS Donna — WDG2382 — position and weather

sailwx.info

Track history (hours):
 
Tides and Currents Weather Stations Pressure Air Temp Water Temp Dewpoint Dewpoint Depression Visibility Wind Speed Wind Dir Waves Ship Positions

MiSS Donna

More information available from US FCC via Universal Licensing System and Coast Guard Vessel Documentation Center.

Last reported at 2014-Jul-27 12:09 UTC. Time now 2014-Jul-28 14:35 UTC.
Position N 39°13' W 076°35'.

Length 21 m; draft 2.7 m.

Type: Towing. MMSI: 367515090.

Date/timePositionNaut miles runAvg speedWind from/ knotsBaromVisibWave heightAir tempDewpointWater temp
2014-Jul-27 12:09N 39°13' W 076°35'0 0.0
2014-Jul-27 11:33N 39°13' W 076°35'0 0.0
2014-Jul-26 07:18N 39°13' W 076°35'0 0.0
2014-Jul-25 11:17N 39°13' W 076°35'0 0.0
2014-Jul-25 09:23N 39°13' W 076°35'0 0.0
2014-Jul-25 08:23N 39°13' W 076°35'0 0.0
2014-Jul-25 07:29N 39°13' W 076°35'0 0.0
2014-Jul-25 06:17N 39°13' W 076°35'0 0.0
2014-Jul-25 04:29N 39°13' W 076°35'0 0.0
2014-Jul-24 23:29N 39°13' W 076°35'0 0.0
2014-Jul-24 13:23N 39°13' W 076°35'0 0.0
2014-Jul-24 12:23N 39°13' W 076°35'0 0.0
2014-Jul-24 06:32N 39°13' W 076°35'0 0.0
2014-Jul-23 10:20N 39°13' W 076°35'0 0.0
2014-Jul-23 09:32N 39°13' W 076°35'0 0.0
2014-Jul-23 08:08N 39°13' W 076°35'0 0.0
2014-Jul-22 17:29N 39°13' W 076°35'0 0.0
2014-Jul-22 11:32N 39°13' W 076°35'0 0.0
2014-Jul-22 09:32N 39°13' W 076°35'0 0.0
2014-Jul-22 07:14N 39°13' W 076°35'0 0.0
2014-Jul-22 04:11N 39°13' W 076°35'0 0.0
2014-Jul-22 03:29N 39°13' W 076°35'0 0.0
2014-Jul-22 02:29N 39°13' W 076°35'0 0.0
2014-Jul-22 00:29N 39°13' W 076°35'0 0.0
2014-Jul-21 23:09N 39°13' W 076°35'2 3.4
2014-Jul-21 22:33N 39°13' W 076°32'17 0.9
2014-Jul-21 02:33N 38°57' W 076°25'4 3.9
2014-Jul-21 01:33N 39°01' W 076°23'4 4.0
2014-Jul-21 00:33N 39°04' W 076°24'4 4.0
2014-Jul-20 23:33N 39°08' W 076°24'4 3.8
2014-Jul-20 22:33N 39°11' W 076°28'4 3.6
2014-Jul-20 21:33N 39°13' W 076°32'2 2.4
2014-Jul-20 20:33N 39°14' W 076°35'1 0.8
2014-Jul-20 19:33N 39°13' W 076°35'1 0.6
2014-Jul-20 18:17N 39°13' W 076°35'0 0.0
2014-Jul-20 16:23N 39°13' W 076°35'0 0.0
2014-Jul-20 13:33N 39°13' W 076°35'0 0.1
2014-Jul-20 11:33N 39°13' W 076°35'1 0.1
2014-Jul-20 05:31N 39°13' W 076°35'0 0.0
2014-Jul-18 23:32N 39°13' W 076°35'0 0.0
2014-Jul-17 18:24N 39°13' W 076°35'2 2.7
2014-Jul-17 17:33N 39°15' W 076°35'  
Track history (hours):
 
Tides and Currents Weather Stations Pressure Air Temp Water Temp Dewpoint Dewpoint Depression Visibility Wind Speed Wind Dir Waves Ship Positions

MiSS Donna

More information available from US FCC via Universal Licensing System and Coast Guard Vessel Documentation Center.

Last reported at 2014-Jul-27 12:09 UTC. Time now 2014-Jul-28 14:35 UTC.
Position N 39°13' W 076°35'.

Length 21 m; draft 2.7 m.

Type: Towing. MMSI: 367515090.

Date/timePositionNaut miles runAvg speedWind from/ knotsBaromVisibWave heightAir tempDewpointWater temp
2014-Jul-27 12:09N 39°13' W 076°35'0 0.0
2014-Jul-27 11:33N 39°13' W 076°35'0 0.0
2014-Jul-26 07:18N 39°13' W 076°35'0 0.0
2014-Jul-25 11:17N 39°13' W 076°35'0 0.0
2014-Jul-25 09:23N 39°13' W 076°35'0 0.0
2014-Jul-25 08:23N 39°13' W 076°35'0 0.0
2014-Jul-25 07:29N 39°13' W 076°35'0 0.0
2014-Jul-25 06:17N 39°13' W 076°35'0 0.0
2014-Jul-25 04:29N 39°13' W 076°35'0 0.0
2014-Jul-24 23:29N 39°13' W 076°35'0 0.0
2014-Jul-24 13:23N 39°13' W 076°35'0 0.0
2014-Jul-24 12:23N 39°13' W 076°35'0 0.0
2014-Jul-24 06:32N 39°13' W 076°35'0 0.0
2014-Jul-23 10:20N 39°13' W 076°35'0 0.0
2014-Jul-23 09:32N 39°13' W 076°35'0 0.0
2014-Jul-23 08:08N 39°13' W 076°35'0 0.0
2014-Jul-22 17:29N 39°13' W 076°35'0 0.0
2014-Jul-22 11:32N 39°13' W 076°35'0 0.0
2014-Jul-22 09:32N 39°13' W 076°35'0 0.0
2014-Jul-22 07:14N 39°13' W 076°35'0 0.0
2014-Jul-22 04:11N 39°13' W 076°35'0 0.0
2014-Jul-22 03:29N 39°13' W 076°35'0 0.0
2014-Jul-22 02:29N 39°13' W 076°35'0 0.0
2014-Jul-22 00:29N 39°13' W 076°35'0 0.0
2014-Jul-21 23:09N 39°13' W 076°35'2 3.4
2014-Jul-21 22:33N 39°13' W 076°32'17 0.9
2014-Jul-21 02:33N 38°57' W 076°25'4 3.9
2014-Jul-21 01:33N 39°01' W 076°23'4 4.0
2014-Jul-21 00:33N 39°04' W 076°24'4 4.0
2014-Jul-20 23:33N 39°08' W 076°24'4 3.8
2014-Jul-20 22:33N 39°11' W 076°28'4 3.6
2014-Jul-20 21:33N 39°13' W 076°32'2 2.4
2014-Jul-20 20:33N 39°14' W 076°35'1 0.8
2014-Jul-20 19:33N 39°13' W 076°35'1 0.6
2014-Jul-20 18:17N 39°13' W 076°35'0 0.0
2014-Jul-20 16:23N 39°13' W 076°35'0 0.0
2014-Jul-20 13:33N 39°13' W 076°35'0 0.1
2014-Jul-20 11:33N 39°13' W 076°35'1 0.1
2014-Jul-20 05:31N 39°13' W 076°35'0 0.0
2014-Jul-18 23:32N 39°13' W 076°35'0 0.0
2014-Jul-17 18:24N 39°13' W 076°35'2 2.7
2014-Jul-17 17:33N 39°15' W 076°35'  

Dump ship's entire track history